• Join FlightAware (Why Join?)
  • Login
  • US Flag 
Gobble Gobble! 
05:15PM EST


 

Airport Tracker/Info


-or-


 

Live Flight TrackerFlight Track Log ✈ TMC875 ✈ 06-Jun-2013 ✈ KHPN - KBED

Flight Track Log - Related Links

Times and Time Zones

All times are in EDT time to prevent confusion due to time zone crossing. See the TMC875 flight status page for this flight to view local times or setup timezone preferences in your user account.

Time Position Orientation Groundspeed Altitude Reporting Facility
EDT Latitude Longitude Course Direction KTS MPH feet Rate Location/Type
09:03AM 41.0500 -73.7000 56° Northeast 185 213 1,700  Level New York TRACON
09:05AM 41.1019 -73.8228 299° West 220 253 7,800 3,120 Climbing Boston Center
09:06AM 41.1481 -73.7992 21° North 182 209 10,800 1,560 Climbing Boston Center
09:07AM 41.1992 -73.6925 57° Northeast 239 275 11,000 660 Climbing Boston Center
09:08AM 41.2358 -73.5800 67° East 316 364 12,200 1,740 Climbing Boston Center
09:09AM 41.3647 -73.1373 56° Northeast  Level FlightAware Approximate
09:09AM 41.2722 -73.4758 65° Northeast 326 375 14,500  Level Boston Center
09:10AM 41.3108 -73.3547 67° East 334 384 15,000 240 Climbing Boston Center
09:11AM 41.3536 -73.2308 65° Northeast 356 410 15,000  Level Boston Center
09:12AM 41.4000 -73.1125 62° Northeast 356 410 15,000  Level Boston Center
09:13AM 41.4592 -72.9747 60° Northeast 351 404 15,000  Level Boston Center
09:14AM 41.5117 -72.8836 52° Northeast 351 404 15,000  Level Boston Center
09:15AM 41.5831 -72.7703 50° Northeast 351 404 15,000  Level Boston Center
09:16AM 41.6414 -72.6872 47° Northeast 351 404 15,000  Level Boston Center
09:17AM 41.7189 -72.5792 46° Northeast 351 404 15,000 -300 Level Boston Center
09:18AM 41.7878 -72.4819 46° Northeast 351 404 14,400 -660 Descending Boston Center
09:19AM 41.8606 -72.3789 47° Northeast 363 418 13,700 -900 Descending Boston Center
09:20AM 41.9333 -72.2756 47° Northeast 374 430 12,700 -1,020 Descending Boston Center
09:21AM 42.0042 -72.1719 47° Northeast 392 451 11,700 -1,260 Descending Boston Center
09:22AM 42.0808 -72.0625 47° Northeast 379 436 10,300 -1,440 Descending Boston Center
09:23AM 42.1453 -71.9892 40° Northeast 305 351 8,800 -1,860 Descending Boston Center
09:24AM 42.2222 -71.9692 11° North 272 313 6,600 -1,440 Descending Boston Center
09:26AM 42.3167 -71.8667 39° Northeast 261 300 5,000 -600 Descending KA90
09:27AM 42.3500 -71.7833 62° Northeast 273 314 5,000  Level KA90
09:28AM 42.4000 -71.7000 51° Northeast 277 319 5,000 -180 Level KA90
09:29AM 42.4500 -71.6167 51° Northeast 273 314 4,700 -600 Descending KA90
09:30AM 42.5000 -71.5500 44° Northeast 252 290 3,800 -900 Descending KA90
09:31AM 42.5333 -71.4667 61° Northeast 239 275 3,000 -420 Descending KA90
09:32AM 42.5500 -71.3833 75° East 227 261 3,000 -300 Level KA90
09:33AM 42.5667 -71.3167 71° East 205 236 2,500 -480 Descending KA90
09:34AM 42.5500 -71.2500 109° East 180 207 2,100 -360 Descending KA90
09:35AM 42.5167 -71.2000 132° Southeast 163 188 1,800 -120 Descending KA90
09:36AM 42.4833 -71.1833 160° South 161 185 1,900 -480 Climbing KA90
09:37AM 42.4667 -71.2167 236° Southwest 137 158 900 -1,020 Descending KA90
09:39AM 42.4667 -71.2833 196° South  Level FlightAware Approximate